Snow Cloud — CZ_5203 — position and weather

sailwx.info

Track history (hours):
 
Tides and Currents Weather Stations Pressure Air Temp Water Temp Dewpoint Dewpoint Depression Visibility Wind Speed Wind Dir Waves Ship Positions

Snow Cloud

Last reported at 2018-Apr-16 23:01 UTC. Time now 2018-Jun-24 01:12 UTC.
Position N 49°17' W 123°06'.
Warning: this ship's position is months out of date.

Length 21 m; draft 2.5 m.

Type: Fishing. MMSI: 316012953.

Date/timePositionNaut miles runAvg speedWind from/ knotsBaromVisibWave heightAir tempDewpointWater temp
2018-Apr-16 23:01N 49°17' W 123°06'0 0.0
2018-Apr-16 23:00N 49°17' W 123°06'0 0.0
2018-Apr-16 22:31N 49°17' W 123°06'0 0.0
2018-Apr-16 22:00N 49°17' W 123°06'1 1.8
2018-Apr-16 21:31N 49°18' W 123°07'2 4.3
2018-Apr-16 21:00N 49°19' W 123°10'4 8.2
2018-Apr-16 20:30N 49°17' W 123°16'4 8.3
2018-Apr-16 20:00N 49°13' W 123°18'4 8.8
2018-Apr-16 19:30N 49°09' W 123°18'2 4.9
2018-Apr-16 19:00N 49°07' W 123°15'2 0.8
2018-Apr-16 15:50N 49°07' W 123°11'0 0.0
2018-Apr-16 15:25N 49°07' W 123°11'1 0.1
2018-Apr-16 07:28N 49°07' W 123°12'2 4.8
2018-Apr-16 07:00N 49°07' W 123°16'3 5.2
2018-Apr-16 06:28N 49°07' W 123°20'4 8.6
2018-Apr-16 05:59N 49°09' W 123°25'4 8.5
2018-Apr-16 05:30N 49°11' W 123°30'5 8.9
2018-Apr-16 05:00N 49°14' W 123°36'5 9.1
2018-Apr-16 04:29N 49°17' W 123°42'5 8.7
2018-Apr-16 03:57N 49°19' W 123°48'31 7.7
2018-Apr-15 23:53N 49°36' W 124°28'3 8.0
2018-Apr-15 23:28N 49°38' W 124°32'5 8.0
2018-Apr-15 22:53N 49°41' W 124°38'3 8.4
2018-Apr-15 22:30N 49°43' W 124°41'4 8.5
2018-Apr-15 22:00N 49°46' W 124°46'4 8.2
2018-Apr-15 21:30N 49°48' W 124°52'4 8.7
2018-Apr-15 21:00N 49°51' W 124°57'4 8.6
2018-Apr-15 20:30N 49°54' W 125°02'4 8.3
2018-Apr-15 20:00N 49°56' W 125°07'4 8.9
2018-Apr-15 19:30N 49°59' W 125°12'3 6.6
2018-Apr-15 19:00N 50°02' W 125°15'3 6.7
2018-Apr-15 18:30N 50°05' W 125°17'4 7.9
2018-Apr-15 17:59N 50°08' W 125°21'1 3.1
2018-Apr-15 17:30N 50°10' W 125°20'0 0.0
2018-Apr-15 17:00N 50°10' W 125°20'0 0.0
2018-Apr-15 16:30N 50°10' W 125°20'0 0.0
2018-Apr-15 16:00N 50°10' W 125°20'0 0.0
2018-Apr-15 15:30N 50°10' W 125°20'94 7.1
2018-Apr-15 02:17N 50°57' W 127°28'2 6.9
2018-Apr-15 02:00N 50°58' W 127°30'4 7.2
2018-Apr-15 01:30N 51°00' W 127°35'3 6.8
2018-Apr-15 01:00N 51°03' W 127°38'3 6.7
2018-Apr-15 00:29N 51°05' W 127°42'3 7.0
2018-Apr-15 00:00N 51°08' W 127°45'3 6.7
2018-Apr-14 23:29N 51°10' W 127°49'9 7.1
2018-Apr-14 22:15N 51°19' W 127°52'2 7.5
2018-Apr-14 22:00N 51°21' W 127°52'6 7.5
2018-Apr-14 21:10N 51°27' W 127°52'2 8.3
2018-Apr-14 20:55N 51°29' W 127°52'3 8.0
2018-Apr-14 20:30N 51°33' W 127°53'4 7.2
2018-Apr-14 20:00N 51°36' W 127°54'3 7.0
2018-Apr-14 19:30N 51°40' W 127°55'4 7.0
2018-Apr-14 19:00N 51°43' W 127°55'4 7.1
2018-Apr-14 18:30N 51°47' W 127°56'4 7.0
2018-Apr-14 18:00N 51°50' W 127°57'4 7.2
2018-Apr-14 17:30N 51°54' W 127°56'4 7.2
2018-Apr-14 17:00N 51°57' W 127°56'4 7.1
2018-Apr-14 16:30N 52°01' W 127°56'6 6.4
2018-Apr-14 15:34N 52°05' W 128°03'0 8.2
2018-Apr-14 15:30N 52°05' W 128°04'4 7.3
2018-Apr-14 15:00N 52°08' W 128°08'5 6.6
2018-Apr-14 14:15N 52°12' W 128°09'2 7.9
2018-Apr-14 14:00N 52°13' W 128°11'4 7.8
2018-Apr-14 13:27N 52°15' W 128°18'4 7.8
2018-Apr-14 12:56N 52°16' W 128°25'4 7.4
2018-Apr-14 12:26N 52°18' W 128°29'3 7.4
2018-Apr-14 11:59N 52°21' W 128°31'3 7.1
2018-Apr-14 11:30N 52°25' W 128°30'4 7.4
2018-Apr-14 10:59N 52°28' W 128°28'99 6.9
2018-Apr-13 20:42N 53°50' W 130°01'1 7.2
2018-Apr-13 20:31N 53°51' W 130°03'4 7.3
2018-Apr-13 20:00N 53°54' W 130°07'4 7.2
2018-Apr-13 19:30N 53°56' W 130°11'3 7.0
2018-Apr-13 19:00N 53°59' W 130°13'3 6.6
2018-Apr-13 18:30N 54°03' W 130°15'4 7.1
2018-Apr-13 18:00N 54°06' W 130°17'4 7.5
2018-Apr-13 17:30N 54°09' W 130°19'3 5.5
2018-Apr-13 17:00N 54°12' W 130°18'1 2.8
2018-Apr-13 16:30N 54°14' W 130°18'0 0.0
2018-Apr-13 16:00N 54°14' W 130°18'  
Track history (hours):
 
Tides and Currents Weather Stations Pressure Air Temp Water Temp Dewpoint Dewpoint Depression Visibility Wind Speed Wind Dir Waves Ship Positions

Snow Cloud

Last reported at 2018-Apr-16 23:01 UTC. Time now 2018-Jun-24 01:12 UTC.
Position N 49°17' W 123°06'.
Warning: this ship's position is months out of date.

Length 21 m; draft 2.5 m.

Type: Fishing. MMSI: 316012953.

Date/timePositionNaut miles runAvg speedWind from/ knotsBaromVisibWave heightAir tempDewpointWater temp
2018-Apr-16 23:01N 49°17' W 123°06'0 0.0
2018-Apr-16 23:00N 49°17' W 123°06'0 0.0
2018-Apr-16 22:31N 49°17' W 123°06'0 0.0
2018-Apr-16 22:00N 49°17' W 123°06'1 1.8
2018-Apr-16 21:31N 49°18' W 123°07'2 4.3
2018-Apr-16 21:00N 49°19' W 123°10'4 8.2
2018-Apr-16 20:30N 49°17' W 123°16'4 8.3
2018-Apr-16 20:00N 49°13' W 123°18'4 8.8
2018-Apr-16 19:30N 49°09' W 123°18'2 4.9
2018-Apr-16 19:00N 49°07' W 123°15'2 0.8
2018-Apr-16 15:50N 49°07' W 123°11'0 0.0
2018-Apr-16 15:25N 49°07' W 123°11'1 0.1
2018-Apr-16 07:28N 49°07' W 123°12'2 4.8
2018-Apr-16 07:00N 49°07' W 123°16'3 5.2
2018-Apr-16 06:28N 49°07' W 123°20'4 8.6
2018-Apr-16 05:59N 49°09' W 123°25'4 8.5
2018-Apr-16 05:30N 49°11' W 123°30'5 8.9
2018-Apr-16 05:00N 49°14' W 123°36'5 9.1
2018-Apr-16 04:29N 49°17' W 123°42'5 8.7
2018-Apr-16 03:57N 49°19' W 123°48'31 7.7
2018-Apr-15 23:53N 49°36' W 124°28'3 8.0
2018-Apr-15 23:28N 49°38' W 124°32'5 8.0
2018-Apr-15 22:53N 49°41' W 124°38'3 8.4
2018-Apr-15 22:30N 49°43' W 124°41'4 8.5
2018-Apr-15 22:00N 49°46' W 124°46'4 8.2
2018-Apr-15 21:30N 49°48' W 124°52'4 8.7
2018-Apr-15 21:00N 49°51' W 124°57'4 8.6
2018-Apr-15 20:30N 49°54' W 125°02'4 8.3
2018-Apr-15 20:00N 49°56' W 125°07'4 8.9
2018-Apr-15 19:30N 49°59' W 125°12'3 6.6
2018-Apr-15 19:00N 50°02' W 125°15'3 6.7
2018-Apr-15 18:30N 50°05' W 125°17'4 7.9
2018-Apr-15 17:59N 50°08' W 125°21'1 3.1
2018-Apr-15 17:30N 50°10' W 125°20'0 0.0
2018-Apr-15 17:00N 50°10' W 125°20'0 0.0
2018-Apr-15 16:30N 50°10' W 125°20'0 0.0
2018-Apr-15 16:00N 50°10' W 125°20'0 0.0
2018-Apr-15 15:30N 50°10' W 125°20'94 7.1
2018-Apr-15 02:17N 50°57' W 127°28'2 6.9
2018-Apr-15 02:00N 50°58' W 127°30'4 7.2
2018-Apr-15 01:30N 51°00' W 127°35'3 6.8
2018-Apr-15 01:00N 51°03' W 127°38'3 6.7
2018-Apr-15 00:29N 51°05' W 127°42'3 7.0
2018-Apr-15 00:00N 51°08' W 127°45'3 6.7
2018-Apr-14 23:29N 51°10' W 127°49'9 7.1
2018-Apr-14 22:15N 51°19' W 127°52'2 7.5
2018-Apr-14 22:00N 51°21' W 127°52'6 7.5
2018-Apr-14 21:10N 51°27' W 127°52'2 8.3
2018-Apr-14 20:55N 51°29' W 127°52'3 8.0
2018-Apr-14 20:30N 51°33' W 127°53'4 7.2
2018-Apr-14 20:00N 51°36' W 127°54'3 7.0
2018-Apr-14 19:30N 51°40' W 127°55'4 7.0
2018-Apr-14 19:00N 51°43' W 127°55'4 7.1
2018-Apr-14 18:30N 51°47' W 127°56'4 7.0
2018-Apr-14 18:00N 51°50' W 127°57'4 7.2
2018-Apr-14 17:30N 51°54' W 127°56'4 7.2
2018-Apr-14 17:00N 51°57' W 127°56'4 7.1
2018-Apr-14 16:30N 52°01' W 127°56'6 6.4
2018-Apr-14 15:34N 52°05' W 128°03'0 8.2
2018-Apr-14 15:30N 52°05' W 128°04'4 7.3
2018-Apr-14 15:00N 52°08' W 128°08'5 6.6
2018-Apr-14 14:15N 52°12' W 128°09'2 7.9
2018-Apr-14 14:00N 52°13' W 128°11'4 7.8
2018-Apr-14 13:27N 52°15' W 128°18'4 7.8
2018-Apr-14 12:56N 52°16' W 128°25'4 7.4
2018-Apr-14 12:26N 52°18' W 128°29'3 7.4
2018-Apr-14 11:59N 52°21' W 128°31'3 7.1
2018-Apr-14 11:30N 52°25' W 128°30'4 7.4
2018-Apr-14 10:59N 52°28' W 128°28'99 6.9
2018-Apr-13 20:42N 53°50' W 130°01'1 7.2
2018-Apr-13 20:31N 53°51' W 130°03'4 7.3
2018-Apr-13 20:00N 53°54' W 130°07'4 7.2
2018-Apr-13 19:30N 53°56' W 130°11'3 7.0
2018-Apr-13 19:00N 53°59' W 130°13'3 6.6
2018-Apr-13 18:30N 54°03' W 130°15'4 7.1
2018-Apr-13 18:00N 54°06' W 130°17'4 7.5
2018-Apr-13 17:30N 54°09' W 130°19'3 5.5
2018-Apr-13 17:00N 54°12' W 130°18'1 2.8
2018-Apr-13 16:30N 54°14' W 130°18'0 0.0
2018-Apr-13 16:00N 54°14' W 130°18'  

Dump ship's entire track history